AirNav   Air Wisconsin Up To $57,000 Bonus
 
 662 users online  

3J6 Davis Field Airport
Folkston, Georgia, USA

GOING TO FOLKSTON?


FAA INFORMATION EFFECTIVE 07 NOVEMBER 2019

Location

FAA Identifier: 3J6
Lat/Long: 30-47-46.9000N 082-01-41.4000W
30-47.781667N 082-01.690000W
30.7963611,-82.0281667
(estimated)
Elevation: 68 ft. / 21 m (estimated)
Variation: 03W (1985)
From city: 3 miles SW of FOLKSTON, GA
Time zone: UTC -5 (UTC -4 during Daylight Saving Time)
Zip code: 31537

Airport Operations

Airport use: Open to the public
Activation date: 11/1962
Control tower: no
ARTCC: JACKSONVILLE CENTER
FSS: MACON FLIGHT SERVICE STATION
NOTAMs facility: MCN (NOTAM-D service available)
Attendance: UNATNDD
Wind indicator: lighted
Segmented circle: yes
Lights: MIRL RY 18/36 PRESET LOW INTST DUSK-2030; AFTER 2030 ACTVT - CTAF.
Beacon: white-green (lighted land airport)
Operates sunset to sunrise.

Airport Communications

CTAF: 122.9

Nearby radio navigation aids

VOR radial/distance  VOR name  Freq  Var
TAYr060/32.2TAYLOR VORTAC112.9003W
SSIr247/33.6BRUNSWICK VORTAC109.8004W
VQQr352/(35.7)CECIL VOR117.9003W
CRGr319/38.3CRAIG VORTAC114.5003W
AYSr136/39.3WAYCROSS VORTAC110.2000E

Airport Services

Parking: tiedowns
Airframe service: NONE
Powerplant service: NONE
Bottled oxygen: NONE
Bulk oxygen: NONE

Runway Information

Runway 18/36

Dimensions: 2500 x 50 ft. / 762 x 15 m
Surface: asphalt, in good condition
Weight bearing capacity: 
Single wheel: 12.5
Runway edge lights: medium intensity
RUNWAY 18  RUNWAY 36
Latitude: 30-47.988333N30-47.575833N
Longitude: 082-01.685000W082-01.694833W
Traffic pattern: leftright
Displaced threshold: no650 ft.
Markings: basic, in good conditionbasic, in good condition
Obstructions: 19 ft. trees, 580 ft. from runway, 100 ft. left of centerline, 20:1 slope to clear42 ft. trees, 201 ft. from runway, 100 ft. left and right of centerline
+50 FT TREES 90 FT LEFT & RIGHT AT THLD

Airport Ownership and Management from official FAA records

Ownership: Publicly-owned
Owner: CHARLTON COUNTY
68 KINGSLAND DR. STE B
FOLKSTON, GA 31537
Phone 912-496-2549
Manager: HAMPTON RAULERSON
68 KINSLAND DR., STE B
FOLKSTON, GA 31537
Phone (912) 886-3260

Airport Operational Statistics

Aircraft based on the field: 5
Single engine airplanes: 5
    
Aircraft operations: avg 61/week *
62% local general aviation
31% transient general aviation
6% military
* for 12-month period ending 01 November 2017

Additional Remarks

LGTD 272 FT AGL TOWER 1000 FT WEST.
FOR CD CTC JACKSONVILLE APCH AT 904-741-0284.

Instrument Procedures

There are no published instrument procedures at 3J6.

Some nearby airports with instrument procedures:

KJAX - Jacksonville International Airport (25 nm SE)
4J1 - Brantley County Airport (25 nm N)
FHB - Fernandina Beach Municipal Airport (31 nm E)
KAYS - Waycross-Ware County Airport (33 nm NW)
KHEG - Herlong Recreational Airport (33 nm S)
 
Loc | Ops | Rwys | IFR | FBO | Links
Com | Nav | Svcs | Stats | Notes
Area around 3J6 (Davis Field Airport)
 
Road maps at: MapQuest Bing Google
 
Aerial photo
WARNING: Photo may not be current or correct
Aerial photo of 3J6 (Davis Field Airport)
Do you have a better or more recent aerial photo of Davis Field Airport that you would like to share? If so, please send us your photo.

 
Sectional chart

 
Airport distance calculator
Flying to Davis Field Airport? Find the distance to fly.

From to 3J6

Sunrise and sunset
Times for 22-Nov-2019
 Local
(UTC-5)
 Zulu
(UTC)
Morning civil twilight06:3611:36
Sunrise07:0212:02
Sunset17:2722:27
Evening civil twilight17:5322:53

Current date and time
Zulu (UTC)  22-Nov-2019 05:03:33
Local (UTC-5)  22-Nov-2019 00:03:33
 
METAR
KJAX 
25nm SE 
220456Z 00000KT 6SM BR BKN230 12/11 A3016 RMK AO2 SLP215 T01220111 402170067
KFHB 
31nm E 
220455Z AUTO 00000KT 7SM CLR 13/ A3017 RMK AO2 T0128////
KHEG 
33nm S 
220435Z AUTO 00000KT 4SM BR CLR 12/12 A3020 RMK AO2
KAYS 
33nm NW 
220455Z AUTO 00000KT 10SM CLR 12/10 A3018 RMK AO2 T01210095 402170037 TSNO
KVQQ 
36nm S 
220455Z AUTO 00000KT 5SM BR CLR 10/10 A3018 RMK AO2
KCRG 
38nm SE 
220453Z AUTO 00000KT 5SM BR CLR 13/13 A3018 RMK AO2 SLP219 T01330128 402060078
KSSI 
39nm NE 
220453Z AUTO 00000KT 10SM CLR 13/12 A3016 RMK AO2 SLP215 T01330117 402000078
KNIP 
39nm SE 
220453Z 00000KT 10SM FEW180 BKN200 BKN250 16/14 A3018 RMK AO2 SLP216 T01610139 402220122
KBQK 
40nm NE 
220455Z AUTO 00000KT 10SM CLR 11/11 A3017 RMK AO2 T01120107
KNRB 
40nm SE 
220452Z AUTO 35003KT 10SM CLR 16/14 A3018 RMK AO2 SLP219 T01560144 401940133
TAF
KJAX 
25nm SE 
211720Z 2118/2218 07007KT P6SM FEW250 FM220900 00000KT 2SM BR SCT003 BKN250 FM221400 22003KT P6SM BKN250
NOTAMs
Click for the latest NOTAMs
NOTAMs are issued by the DoD/FAA and will open in a separate window not controlled by AirNav.

 

 
 

Would you like to see your business listed on this page?

 If your business provides an interesting product or service to pilots, flight crews, aircraft, or users of the Davis Field Airport, you should consider listing it here.  To start the listing process, click on the button below
 
Add a business
 

Other Pages about Davis Field Airport

Update a link
 
Copyright © AirNav, LLC. All rights reserved. Privacy Policy  Contact